sensor_id;sensor_type;location;lat;lon;timestamp;P1;durP1;ratioP1;P2;durP2;ratioP2
70549;SDS011;58101;48.658;2.328;2022-07-01T00:00:35;4.85;;;1.25;;
70549;SDS011;58101;48.658;2.328;2022-07-01T00:03:02;5.13;;;1.30;;
70549;SDS011;58101;48.658;2.328;2022-07-01T00:05:29;4.53;;;1.25;;
70549;SDS011;58101;48.658;2.328;2022-07-01T00:07:55;5.65;;;1.15;;
70549;SDS011;58101;48.658;2.328;2022-07-01T00:10:21;6.60;;;1.27;;
70549;SDS011;58101;48.658;2.328;2022-07-01T00:12:47;4.38;;;1.10;;
70549;SDS011;58101;48.658;2.328;2022-07-01T00:15:12;7.93;;;1.33;;
70549;SDS011;58101;48.658;2.328;2022-07-01T00:17:39;6.43;;;1.75;;
70549;SDS011;58101;48.658;2.328;2022-07-01T00:20:05;6.68;;;1.40;;
70549;SDS011;58101;48.658;2.328;2022-07-01T00:22:33;4.25;;;1.15;;
70549;SDS011;58101;48.658;2.328;2022-07-01T00:24:59;4.25;;;1.10;;
70549;SDS011;58101;48.658;2.328;2022-07-01T00:27:25;6.15;;;1.30;;
70549;SDS011;58101;48.658;2.328;2022-07-01T00:29:50;6.18;;;1.20;;
70549;SDS011;58101;48.658;2.328;2022-07-01T00:32:16;8.68;;;1.27;;
70549;SDS011;58101;48.658;2.328;2022-07-01T00:34:42;5.10;;;1.10;;
70549;SDS011;58101;48.658;2.328;2022-07-01T00:37:07;5.53;;;1.30;;
70549;SDS011;58101;48.658;2.328;2022-07-01T00:39:33;8.05;;;1.25;;
70549;SDS011;58101;48.658;2.328;2022-07-01T00:42:01;4.75;;;1.17;;
70549;SDS011;58101;48.658;2.328;2022-07-01T00:44:28;6.30;;;1.10;;
70549;SDS011;58101;48.658;2.328;2022-07-01T00:46:54;4.50;;;1.27;;
70549;SDS011;58101;48.658;2.328;2022-07-01T00:51:46;5.30;;;1.10;;
70549;SDS011;58101;48.658;2.328;2022-07-01T00:54:12;4.78;;;1.27;;
70549;SDS011;58101;48.658;2.328;2022-07-01T00:56:39;9.57;;;1.38;;
70549;SDS011;58101;48.658;2.328;2022-07-01T00:59:04;6.40;;;1.20;;
70549;SDS011;58101;48.658;2.328;2022-07-01T01:01:30;6.60;;;1.30;;
70549;SDS011;58101;48.658;2.328;2022-07-01T01:03:56;9.82;;;1.30;;
70549;SDS011;58101;48.658;2.328;2022-07-01T01:06:22;8.60;;;1.42;;
70549;SDS011;58101;48.658;2.328;2022-07-01T01:08:47;5.20;;;1.25;;
70549;SDS011;58101;48.658;2.328;2022-07-01T01:11:14;10.57;;;1.50;;
70549;SDS011;58101;48.658;2.328;2022-07-01T01:13:43;5.75;;;1.20;;
70549;SDS011;58101;48.658;2.328;2022-07-01T01:16:15;5.28;;;1.30;;
70549;SDS011;58101;48.658;2.328;2022-07-01T01:18:42;9.48;;;1.30;;
70549;SDS011;58101;48.658;2.328;2022-07-01T01:21:08;8.85;;;1.48;;
70549;SDS011;58101;48.658;2.328;2022-07-01T01:23:34;7.90;;;1.30;;
70549;SDS011;58101;48.658;2.328;2022-07-01T01:25:59;5.40;;;1.10;;
70549;SDS011;58101;48.658;2.328;2022-07-01T01:28:26;6.20;;;1.20;;
70549;SDS011;58101;48.658;2.328;2022-07-01T01:30:52;5.68;;;1.30;;
70549;SDS011;58101;48.658;2.328;2022-07-01T01:33:17;7.75;;;1.58;;
70549;SDS011;58101;48.658;2.328;2022-07-01T01:35:43;6.82;;;1.50;;
70549;SDS011;58101;48.658;2.328;2022-07-01T01:38:08;5.45;;;1.20;;
70549;SDS011;58101;48.658;2.328;2022-07-01T01:40:34;7.28;;;1.05;;
70549;SDS011;58101;48.658;2.328;2022-07-01T01:43:00;7.32;;;1.48;;
70549;SDS011;58101;48.658;2.328;2022-07-01T01:45:25;8.77;;;1.33;;
70549;SDS011;58101;48.658;2.328;2022-07-01T01:47:51;7.15;;;1.17;;
70549;SDS011;58101;48.658;2.328;2022-07-01T01:50:17;5.70;;;1.17;;
70549;SDS011;58101;48.658;2.328;2022-07-01T01:52:44;5.72;;;1.10;;
70549;SDS011;58101;48.658;2.328;2022-07-01T01:55:10;5.40;;;1.27;;
70549;SDS011;58101;48.658;2.328;2022-07-01T01:57:36;9.07;;;1.40;;
70549;SDS011;58101;48.658;2.328;2022-07-01T02:00:03;5.85;;;1.50;;
70549;SDS011;58101;48.658;2.328;2022-07-01T02:02:33;5.70;;;1.20;;
70549;SDS011;58101;48.658;2.328;2022-07-01T02:05:01;6.57;;;1.38;;
70549;SDS011;58101;48.658;2.328;2022-07-01T02:07:30;7.47;;;1.30;;
70549;SDS011;58101;48.658;2.328;2022-07-01T02:09:56;7.22;;;1.30;;
70549;SDS011;58101;48.658;2.328;2022-07-01T02:12:22;6.95;;;1.20;;
70549;SDS011;58101;48.658;2.328;2022-07-01T02:14:47;6.18;;;1.20;;
70549;SDS011;58101;48.658;2.328;2022-07-01T02:17:13;7.53;;;1.20;;
70549;SDS011;58101;48.658;2.328;2022-07-01T02:19:38;7.97;;;1.33;;
70549;SDS011;58101;48.658;2.328;2022-07-01T02:22:04;7.82;;;1.38;;
70549;SDS011;58101;48.658;2.328;2022-07-01T02:24:29;10.82;;;1.48;;
70549;SDS011;58101;48.658;2.328;2022-07-01T02:26:55;6.30;;;1.15;;
70549;SDS011;58101;48.658;2.328;2022-07-01T02:29:21;6.85;;;1.30;;
70549;SDS011;58101;48.658;2.328;2022-07-01T02:31:47;6.32;;;1.30;;
70549;SDS011;58101;48.658;2.328;2022-07-01T02:34:15;8.85;;;1.35;;
70549;SDS011;58101;48.658;2.328;2022-07-01T02:36:41;5.38;;;1.40;;
70549;SDS011;58101;48.658;2.328;2022-07-01T02:39:07;5.00;;;1.15;;
70549;SDS011;58101;48.658;2.328;2022-07-01T02:41:32;4.00;;;1.20;;
70549;SDS011;58101;48.658;2.328;2022-07-01T02:44:18;5.97;;;1.30;;
70549;SDS011;58101;48.658;2.328;2022-07-01T02:46:43;5.72;;;1.17;;
70549;SDS011;58101;48.658;2.328;2022-07-01T02:49:09;4.60;;;1.10;;
70549;SDS011;58101;48.658;2.328;2022-07-01T02:51:34;5.80;;;1.30;;
70549;SDS011;58101;48.658;2.328;2022-07-01T02:54:00;8.65;;;1.25;;
70549;SDS011;58101;48.658;2.328;2022-07-01T02:56:26;4.90;;;1.20;;
70549;SDS011;58101;48.658;2.328;2022-07-01T02:58:52;8.02;;;1.30;;
70549;SDS011;58101;48.658;2.328;2022-07-01T03:01:17;3.97;;;1.10;;
70549;SDS011;58101;48.658;2.328;2022-07-01T03:03:43;6.22;;;1.60;;
70549;SDS011;58101;48.658;2.328;2022-07-01T03:06:09;5.18;;;1.10;;
70549;SDS011;58101;48.658;2.328;2022-07-01T03:08:34;4.32;;;1.25;;
70549;SDS011;58101;48.658;2.328;2022-07-01T03:11:00;11.43;;;1.58;;
70549;SDS011;58101;48.658;2.328;2022-07-01T03:13:25;6.82;;;1.23;;
70549;SDS011;58101;48.658;2.328;2022-07-01T03:15:51;7.28;;;1.20;;
70549;SDS011;58101;48.658;2.328;2022-07-01T03:18:16;5.80;;;1.20;;
70549;SDS011;58101;48.658;2.328;2022-07-01T03:20:43;6.20;;;1.30;;
70549;SDS011;58101;48.658;2.328;2022-07-01T03:23:09;5.53;;;1.20;;
70549;SDS011;58101;48.658;2.328;2022-07-01T03:25:34;8.65;;;1.40;;
70549;SDS011;58101;48.658;2.328;2022-07-01T03:28:01;9.07;;;1.77;;
70549;SDS011;58101;48.658;2.328;2022-07-01T03:30:28;6.00;;;1.30;;
70549;SDS011;58101;48.658;2.328;2022-07-01T03:32:54;5.47;;;1.65;;
70549;SDS011;58101;48.658;2.328;2022-07-01T03:35:19;6.97;;;1.42;;
70549;SDS011;58101;48.658;2.328;2022-07-01T03:38:00;6.40;;;1.40;;
70549;SDS011;58101;48.658;2.328;2022-07-01T03:40:26;4.13;;;1.17;;
70549;SDS011;58101;48.658;2.328;2022-07-01T03:42:52;6.70;;;1.20;;
70549;SDS011;58101;48.658;2.328;2022-07-01T03:45:20;5.43;;;1.35;;
70549;SDS011;58101;48.658;2.328;2022-07-01T03:47:46;7.50;;;1.40;;
70549;SDS011;58101;48.658;2.328;2022-07-01T03:50:20;8.05;;;1.50;;
70549;SDS011;58101;48.658;2.328;2022-07-01T03:52:47;6.57;;;1.17;;
70549;SDS011;58101;48.658;2.328;2022-07-01T03:55:13;10.98;;;1.42;;
70549;SDS011;58101;48.658;2.328;2022-07-01T03:57:38;7.70;;;1.30;;
70549;SDS011;58101;48.658;2.328;2022-07-01T04:00:04;9.45;;;1.48;;
70549;SDS011;58101;48.658;2.328;2022-07-01T04:02:32;6.47;;;1.40;;
70549;SDS011;58101;48.658;2.328;2022-07-01T04:04:57;4.97;;;1.30;;
70549;SDS011;58101;48.658;2.328;2022-07-01T04:07:23;5.45;;;1.20;;
70549;SDS011;58101;48.658;2.328;2022-07-01T04:09:49;6.53;;;1.38;;
70549;SDS011;58101;48.658;2.328;2022-07-01T04:12:17;7.03;;;1.20;;
70549;SDS011;58101;48.658;2.328;2022-07-01T04:14:43;6.35;;;1.48;;
70549;SDS011;58101;48.658;2.328;2022-07-01T04:17:09;8.82;;;1.50;;
70549;SDS011;58101;48.658;2.328;2022-07-01T04:19:35;7.45;;;1.25;;
70549;SDS011;58101;48.658;2.328;2022-07-01T04:22:01;4.70;;;1.27;;
70549;SDS011;58101;48.658;2.328;2022-07-01T04:24:45;5.53;;;1.20;;
70549;SDS011;58101;48.658;2.328;2022-07-01T04:27:11;7.93;;;1.60;;
70549;SDS011;58101;48.658;2.328;2022-07-01T04:29:36;6.50;;;1.48;;
70549;SDS011;58101;48.658;2.328;2022-07-01T04:32:02;6.10;;;1.42;;
70549;SDS011;58101;48.658;2.328;2022-07-01T04:34:28;8.82;;;1.40;;
70549;SDS011;58101;48.658;2.328;2022-07-01T04:36:53;6.35;;;1.33;;
70549;SDS011;58101;48.658;2.328;2022-07-01T04:39:21;8.73;;;1.42;;
70549;SDS011;58101;48.658;2.328;2022-07-01T04:41:47;5.65;;;1.40;;
70549;SDS011;58101;48.658;2.328;2022-07-01T04:44:24;7.40;;;1.50;;
70549;SDS011;58101;48.658;2.328;2022-07-01T04:46:54;10.10;;;1.50;;
70549;SDS011;58101;48.658;2.328;2022-07-01T04:49:20;11.38;;;1.60;;
70549;SDS011;58101;48.658;2.328;2022-07-01T04:51:46;11.77;;;1.63;;
70549;SDS011;58101;48.658;2.328;2022-07-01T04:54:12;9.02;;;1.45;;
70549;SDS011;58101;48.658;2.328;2022-07-01T04:56:37;13.55;;;3.13;;
70549;SDS011;58101;48.658;2.328;2022-07-01T04:59:03;8.35;;;1.80;;
70549;SDS011;58101;48.658;2.328;2022-07-01T05:01:30;10.18;;;1.48;;
70549;SDS011;58101;48.658;2.328;2022-07-01T05:03:56;9.63;;;1.60;;
70549;SDS011;58101;48.658;2.328;2022-07-01T05:06:22;7.40;;;1.30;;
70549;SDS011;58101;48.658;2.328;2022-07-01T05:08:48;8.77;;;1.50;;
70549;SDS011;58101;48.658;2.328;2022-07-01T05:11:14;7.93;;;1.30;;
70549;SDS011;58101;48.658;2.328;2022-07-01T05:13:40;8.80;;;1.55;;
70549;SDS011;58101;48.658;2.328;2022-07-01T05:16:06;6.28;;;1.50;;
70549;SDS011;58101;48.658;2.328;2022-07-01T05:18:34;14.05;;;1.40;;
70549;SDS011;58101;48.658;2.328;2022-07-01T05:21:19;10.70;;;2.42;;
70549;SDS011;58101;48.658;2.328;2022-07-01T05:24:03;7.60;;;1.40;;
70549;SDS011;58101;48.658;2.328;2022-07-01T05:26:29;8.07;;;1.63;;
70549;SDS011;58101;48.658;2.328;2022-07-01T05:28:55;5.55;;;1.35;;
70549;SDS011;58101;48.658;2.328;2022-07-01T05:31:21;9.77;;;1.60;;
70549;SDS011;58101;48.658;2.328;2022-07-01T05:33:47;9.60;;;1.60;;
70549;SDS011;58101;48.658;2.328;2022-07-01T05:36:13;5.50;;;1.30;;
70549;SDS011;58101;48.658;2.328;2022-07-01T05:38:39;8.38;;;1.60;;
70549;SDS011;58101;48.658;2.328;2022-07-01T05:41:05;6.40;;;1.30;;
70549;SDS011;58101;48.658;2.328;2022-07-01T05:43:32;6.50;;;1.20;;
70549;SDS011;58101;48.658;2.328;2022-07-01T05:45:57;6.63;;;1.52;;
70549;SDS011;58101;48.658;2.328;2022-07-01T05:48:23;7.38;;;1.40;;
70549;SDS011;58101;48.658;2.328;2022-07-01T05:50:49;5.18;;;1.20;;
70549;SDS011;58101;48.658;2.328;2022-07-01T05:53:16;10.23;;;1.40;;
70549;SDS011;58101;48.658;2.328;2022-07-01T05:55:41;8.05;;;1.58;;
70549;SDS011;58101;48.658;2.328;2022-07-01T05:58:09;5.75;;;1.95;;
70549;SDS011;58101;48.658;2.328;2022-07-01T06:00:36;8.10;;;1.30;;
70549;SDS011;58101;48.658;2.328;2022-07-01T06:03:02;7.95;;;1.23;;
70549;SDS011;58101;48.658;2.328;2022-07-01T06:05:28;6.03;;;1.27;;
70549;SDS011;58101;48.658;2.328;2022-07-01T06:10:21;4.90;;;1.20;;
70549;SDS011;58101;48.658;2.328;2022-07-01T06:12:48;6.18;;;1.23;;
70549;SDS011;58101;48.658;2.328;2022-07-01T06:15:13;7.88;;;1.25;;
70549;SDS011;58101;48.658;2.328;2022-07-01T06:17:39;9.05;;;1.48;;
70549;SDS011;58101;48.658;2.328;2022-07-01T06:20:06;6.07;;;1.25;;
70549;SDS011;58101;48.658;2.328;2022-07-01T06:22:33;4.63;;;1.05;;
70549;SDS011;58101;48.658;2.328;2022-07-01T06:24:59;5.93;;;1.40;;
70549;SDS011;58101;48.658;2.328;2022-07-01T06:27:26;8.65;;;1.23;;
70549;SDS011;58101;48.658;2.328;2022-07-01T06:29:51;10.38;;;1.23;;
70549;SDS011;58101;48.658;2.328;2022-07-01T06:32:18;6.78;;;1.83;;
70549;SDS011;58101;48.658;2.328;2022-07-01T06:34:43;10.05;;;1.30;;
70549;SDS011;58101;48.658;2.328;2022-07-01T06:37:09;7.53;;;1.10;;
70549;SDS011;58101;48.658;2.328;2022-07-01T06:39:35;6.38;;;1.10;;
70549;SDS011;58101;48.658;2.328;2022-07-01T06:42:00;7.97;;;1.17;;
70549;SDS011;58101;48.658;2.328;2022-07-01T06:44:26;9.48;;;1.20;;
70549;SDS011;58101;48.658;2.328;2022-07-01T06:46:52;6.85;;;1.10;;
70549;SDS011;58101;48.658;2.328;2022-07-01T06:49:17;8.30;;;1.17;;
70549;SDS011;58101;48.658;2.328;2022-07-01T06:54:09;5.57;;;1.10;;
70549;SDS011;58101;48.658;2.328;2022-07-01T06:56:35;5.75;;;1.30;;
70549;SDS011;58101;48.658;2.328;2022-07-01T06:59:01;7.43;;;1.00;;
70549;SDS011;58101;48.658;2.328;2022-07-01T07:01:27;5.68;;;1.00;;
70549;SDS011;58101;48.658;2.328;2022-07-01T07:03:53;6.28;;;1.10;;
70549;SDS011;58101;48.658;2.328;2022-07-01T07:06:18;7.72;;;1.30;;
70549;SDS011;58101;48.658;2.328;2022-07-01T07:08:44;4.78;;;1.17;;
70549;SDS011;58101;48.658;2.328;2022-07-01T07:11:10;7.47;;;0.90;;
70549;SDS011;58101;48.658;2.328;2022-07-01T07:13:36;8.88;;;1.55;;
70549;SDS011;58101;48.658;2.328;2022-07-01T07:16:02;6.45;;;0.80;;
70549;SDS011;58101;48.658;2.328;2022-07-01T07:18:28;5.70;;;1.00;;
70549;SDS011;58101;48.658;2.328;2022-07-01T07:20:53;4.53;;;0.90;;
70549;SDS011;58101;48.658;2.328;2022-07-01T07:23:19;5.70;;;0.90;;
70549;SDS011;58101;48.658;2.328;2022-07-01T07:25:44;4.05;;;0.90;;
70549;SDS011;58101;48.658;2.328;2022-07-01T07:28:10;5.47;;;0.93;;
70549;SDS011;58101;48.658;2.328;2022-07-01T07:30:37;4.78;;;0.70;;
70549;SDS011;58101;48.658;2.328;2022-07-01T07:35:28;3.85;;;1.00;;
70549;SDS011;58101;48.658;2.328;2022-07-01T07:37:54;4.93;;;0.73;;
70549;SDS011;58101;48.658;2.328;2022-07-01T07:40:19;4.72;;;0.80;;
70549;SDS011;58101;48.658;2.328;2022-07-01T07:42:46;4.47;;;0.88;;
70549;SDS011;58101;48.658;2.328;2022-07-01T07:45:12;4.40;;;0.70;;
70549;SDS011;58101;48.658;2.328;2022-07-01T07:47:43;5.55;;;0.70;;
70549;SDS011;58101;48.658;2.328;2022-07-01T07:50:09;4.22;;;0.90;;
70549;SDS011;58101;48.658;2.328;2022-07-01T07:52:36;4.05;;;0.73;;
70549;SDS011;58101;48.658;2.328;2022-07-01T07:55:02;5.50;;;0.77;;
70549;SDS011;58101;48.658;2.328;2022-07-01T07:57:28;4.53;;;0.80;;
70549;SDS011;58101;48.658;2.328;2022-07-01T07:59:54;3.78;;;0.65;;
70549;SDS011;58101;48.658;2.328;2022-07-01T08:02:21;2.28;;;0.70;;
70549;SDS011;58101;48.658;2.328;2022-07-01T08:04:46;6.32;;;0.73;;
70549;SDS011;58101;48.658;2.328;2022-07-01T08:07:12;4.53;;;0.70;;
70549;SDS011;58101;48.658;2.328;2022-07-01T08:09:37;3.35;;;0.75;;
70549;SDS011;58101;48.658;2.328;2022-07-01T08:12:03;3.28;;;0.73;;
70549;SDS011;58101;48.658;2.328;2022-07-01T08:14:29;3.30;;;0.80;;
70549;SDS011;58101;48.658;2.328;2022-07-01T08:16:55;4.80;;;0.90;;
70549;SDS011;58101;48.658;2.328;2022-07-01T08:19:21;4.88;;;0.80;;
70549;SDS011;58101;48.658;2.328;2022-07-01T08:21:46;2.60;;;0.70;;
70549;SDS011;58101;48.658;2.328;2022-07-01T08:24:12;2.05;;;0.50;;
70549;SDS011;58101;48.658;2.328;2022-07-01T08:26:38;5.47;;;0.90;;
70549;SDS011;58101;48.658;2.328;2022-07-01T08:29:04;8.02;;;0.90;;
70549;SDS011;58101;48.658;2.328;2022-07-01T08:31:29;3.10;;;0.70;;
70549;SDS011;58101;48.658;2.328;2022-07-01T08:33:56;5.07;;;0.80;;
70549;SDS011;58101;48.658;2.328;2022-07-01T08:36:22;4.25;;;0.70;;
70549;SDS011;58101;48.658;2.328;2022-07-01T08:38:48;3.80;;;0.80;;
70549;SDS011;58101;48.658;2.328;2022-07-01T08:43:40;4.40;;;0.88;;
70549;SDS011;58101;48.658;2.328;2022-07-01T08:46:06;5.47;;;0.75;;
70549;SDS011;58101;48.658;2.328;2022-07-01T08:48:33;4.60;;;0.90;;
70549;SDS011;58101;48.658;2.328;2022-07-01T08:53:29;3.95;;;0.70;;
70549;SDS011;58101;48.658;2.328;2022-07-01T08:55:55;5.80;;;0.77;;
70549;SDS011;58101;48.658;2.328;2022-07-01T08:58:39;7.80;;;0.75;;
70549;SDS011;58101;48.658;2.328;2022-07-01T09:01:12;3.67;;;0.65;;
70549;SDS011;58101;48.658;2.328;2022-07-01T09:03:39;5.30;;;0.80;;
70549;SDS011;58101;48.658;2.328;2022-07-01T09:06:10;5.05;;;0.90;;
70549;SDS011;58101;48.658;2.328;2022-07-01T09:08:41;4.00;;;0.77;;
70549;SDS011;58101;48.658;2.328;2022-07-01T09:11:11;4.13;;;0.60;;
70549;SDS011;58101;48.658;2.328;2022-07-01T09:13:41;4.47;;;0.90;;
70549;SDS011;58101;48.658;2.328;2022-07-01T09:16:14;3.70;;;0.70;;
70549;SDS011;58101;48.658;2.328;2022-07-01T09:19:00;3.38;;;0.70;;
70549;SDS011;58101;48.658;2.328;2022-07-01T09:21:29;4.13;;;0.82;;
70549;SDS011;58101;48.658;2.328;2022-07-01T09:23:56;4.43;;;0.70;;
70549;SDS011;58101;48.658;2.328;2022-07-01T09:26:23;2.50;;;0.60;;
70549;SDS011;58101;48.658;2.328;2022-07-01T09:28:52;4.13;;;0.75;;
70549;SDS011;58101;48.658;2.328;2022-07-01T09:31:22;4.40;;;0.80;;
70549;SDS011;58101;48.658;2.328;2022-07-01T09:34:13;3.97;;;0.70;;
70549;SDS011;58101;48.658;2.328;2022-07-01T09:36:39;3.78;;;0.73;;
70549;SDS011;58101;48.658;2.328;2022-07-01T09:39:05;7.70;;;0.88;;
70549;SDS011;58101;48.658;2.328;2022-07-01T09:41:37;9.43;;;1.40;;
70549;SDS011;58101;48.658;2.328;2022-07-01T09:44:04;10.88;;;2.13;;
70549;SDS011;58101;48.658;2.328;2022-07-01T09:46:30;3.97;;;0.95;;
70549;SDS011;58101;48.658;2.328;2022-07-01T09:51:21;2.72;;;0.60;;
70549;SDS011;58101;48.658;2.328;2022-07-01T09:56:12;4.47;;;0.70;;
70549;SDS011;58101;48.658;2.328;2022-07-01T09:58:38;2.92;;;0.60;;
70549;SDS011;58101;48.658;2.328;2022-07-01T10:01:08;3.20;;;0.73;;
70549;SDS011;58101;48.658;2.328;2022-07-01T10:03:34;3.17;;;0.60;;
70549;SDS011;58101;48.658;2.328;2022-07-01T10:14:07;5.03;;;0.80;;
70549;SDS011;58101;48.658;2.328;2022-07-01T10:16:35;6.63;;;0.98;;
70549;SDS011;58101;48.658;2.328;2022-07-01T10:21:54;4.20;;;0.70;;
70549;SDS011;58101;48.658;2.328;2022-07-01T10:24:22;3.58;;;0.68;;
70549;SDS011;58101;48.658;2.328;2022-07-01T10:26:53;5.95;;;0.80;;
70549;SDS011;58101;48.658;2.328;2022-07-01T10:29:34;3.85;;;0.57;;
70549;SDS011;58101;48.658;2.328;2022-07-01T10:34:33;5.82;;;0.70;;
70549;SDS011;58101;48.658;2.328;2022-07-01T10:37:05;4.03;;;0.70;;
70549;SDS011;58101;48.658;2.328;2022-07-01T10:42:18;3.88;;;0.75;;
70549;SDS011;58101;48.658;2.328;2022-07-01T10:44:58;4.10;;;0.70;;
70549;SDS011;58101;48.658;2.328;2022-07-01T10:47:30;4.78;;;0.80;;
70549;SDS011;58101;48.658;2.328;2022-07-01T10:50:00;21.23;;;1.40;;
70549;SDS011;58101;48.658;2.328;2022-07-01T10:52:29;3.83;;;0.80;;
70549;SDS011;58101;48.658;2.328;2022-07-01T10:54:58;3.70;;;0.60;;
70549;SDS011;58101;48.658;2.328;2022-07-01T10:57:32;3.45;;;0.70;;
70549;SDS011;58101;48.658;2.328;2022-07-01T11:02:29;7.30;;;1.00;;
70549;SDS011;58101;48.658;2.328;2022-07-01T11:05:12;2.30;;;0.63;;
70549;SDS011;58101;48.658;2.328;2022-07-01T11:07:39;5.65;;;1.00;;
70549;SDS011;58101;48.658;2.328;2022-07-01T11:10:13;4.82;;;0.60;;
70549;SDS011;58101;48.658;2.328;2022-07-01T11:12:41;3.03;;;0.70;;
70549;SDS011;58101;48.658;2.328;2022-07-01T11:15:09;7.07;;;0.98;;
70549;SDS011;58101;48.658;2.328;2022-07-01T11:17:36;6.10;;;0.90;;
70549;SDS011;58101;48.658;2.328;2022-07-01T11:20:07;3.80;;;0.80;;
70549;SDS011;58101;48.658;2.328;2022-07-01T11:25:09;4.63;;;0.80;;
70549;SDS011;58101;48.658;2.328;2022-07-01T11:27:36;3.03;;;0.60;;
70549;SDS011;58101;48.658;2.328;2022-07-01T11:30:04;4.05;;;0.70;;
70549;SDS011;58101;48.658;2.328;2022-07-01T11:32:34;5.07;;;0.90;;
70549;SDS011;58101;48.658;2.328;2022-07-01T11:35:02;5.22;;;0.82;;
70549;SDS011;58101;48.658;2.328;2022-07-01T11:37:50;2.13;;;0.52;;
70549;SDS011;58101;48.658;2.328;2022-07-01T11:40:34;2.95;;;0.70;;
70549;SDS011;58101;48.658;2.328;2022-07-01T11:43:00;3.70;;;0.75;;
70549;SDS011;58101;48.658;2.328;2022-07-01T11:45:26;2.60;;;0.50;;
70549;SDS011;58101;48.658;2.328;2022-07-01T11:47:52;2.97;;;0.70;;
70549;SDS011;58101;48.658;2.328;2022-07-01T11:50:18;4.10;;;0.80;;
70549;SDS011;58101;48.658;2.328;2022-07-01T11:52:45;3.35;;;0.57;;
70549;SDS011;58101;48.658;2.328;2022-07-01T11:55:11;3.05;;;0.60;;
70549;SDS011;58101;48.658;2.328;2022-07-01T11:57:37;3.35;;;0.70;;
70549;SDS011;58101;48.658;2.328;2022-07-01T12:00:10;3.80;;;0.68;;
70549;SDS011;58101;48.658;2.328;2022-07-01T12:02:37;3.40;;;0.73;;
70549;SDS011;58101;48.658;2.328;2022-07-01T12:05:03;2.65;;;0.60;;
70549;SDS011;58101;48.658;2.328;2022-07-01T12:07:30;5.25;;;0.70;;
70549;SDS011;58101;48.658;2.328;2022-07-01T12:09:56;4.30;;;0.80;;
70549;SDS011;58101;48.658;2.328;2022-07-01T12:12:23;5.47;;;0.70;;
70549;SDS011;58101;48.658;2.328;2022-07-01T12:14:54;3.58;;;0.70;;
70549;SDS011;58101;48.658;2.328;2022-07-01T12:17:20;3.83;;;0.60;;
70549;SDS011;58101;48.658;2.328;2022-07-01T12:19:48;3.45;;;0.65;;
70549;SDS011;58101;48.658;2.328;2022-07-01T12:22:16;2.67;;;0.60;;
70549;SDS011;58101;48.658;2.328;2022-07-01T12:24:48;4.38;;;0.60;;
70549;SDS011;58101;48.658;2.328;2022-07-01T12:27:15;2.60;;;0.47;;
70549;SDS011;58101;48.658;2.328;2022-07-01T12:34:58;2.10;;;0.45;;
70549;SDS011;58101;48.658;2.328;2022-07-01T12:37:34;3.10;;;0.60;;
70549;SDS011;58101;48.658;2.328;2022-07-01T12:40:02;3.85;;;0.50;;
70549;SDS011;58101;48.658;2.328;2022-07-01T12:42:33;2.80;;;0.70;;
70549;SDS011;58101;48.658;2.328;2022-07-01T12:45:02;4.15;;;0.60;;
70549;SDS011;58101;48.658;2.328;2022-07-01T12:47:31;4.45;;;0.70;;
70549;SDS011;58101;48.658;2.328;2022-07-01T12:52:36;4.78;;;0.70;;
70549;SDS011;58101;48.658;2.328;2022-07-01T12:55:13;4.13;;;0.60;;
70549;SDS011;58101;48.658;2.328;2022-07-01T12:57:47;2.78;;;0.60;;
70549;SDS011;58101;48.658;2.328;2022-07-01T13:00:15;3.60;;;0.55;;
70549;SDS011;58101;48.658;2.328;2022-07-01T13:02:42;3.45;;;0.60;;
70549;SDS011;58101;48.658;2.328;2022-07-01T13:07:35;2.55;;;0.57;;
70549;SDS011;58101;48.658;2.328;2022-07-01T13:12:28;2.92;;;0.60;;
70549;SDS011;58101;48.658;2.328;2022-07-01T13:14:53;4.93;;;0.65;;
70549;SDS011;58101;48.658;2.328;2022-07-01T13:17:20;3.28;;;0.70;;
70549;SDS011;58101;48.658;2.328;2022-07-01T13:19:46;4.05;;;0.75;;
70549;SDS011;58101;48.658;2.328;2022-07-01T13:22:13;3.13;;;0.70;;
70549;SDS011;58101;48.658;2.328;2022-07-01T13:24:39;3.03;;;0.60;;
70549;SDS011;58101;48.658;2.328;2022-07-01T13:27:05;2.10;;;0.55;;
70549;SDS011;58101;48.658;2.328;2022-07-01T13:29:31;2.30;;;0.47;;
70549;SDS011;58101;48.658;2.328;2022-07-01T13:31:56;2.45;;;0.43;;
70549;SDS011;58101;48.658;2.328;2022-07-01T13:34:22;5.00;;;0.77;;
70549;SDS011;58101;48.658;2.328;2022-07-01T13:36:48;3.10;;;0.60;;
70549;SDS011;58101;48.658;2.328;2022-07-01T13:39:13;4.13;;;0.70;;
70549;SDS011;58101;48.658;2.328;2022-07-01T13:41:39;3.88;;;0.68;;
70549;SDS011;58101;48.658;2.328;2022-07-01T13:44:04;2.85;;;0.65;;
70549;SDS011;58101;48.658;2.328;2022-07-01T13:46:30;3.53;;;0.65;;
70549;SDS011;58101;48.658;2.328;2022-07-01T13:48:56;2.47;;;0.50;;
70549;SDS011;58101;48.658;2.328;2022-07-01T13:53:47;3.55;;;0.50;;
70549;SDS011;58101;48.658;2.328;2022-07-01T13:58:38;2.40;;;0.50;;
70549;SDS011;58101;48.658;2.328;2022-07-01T14:03:30;2.22;;;0.50;;
70549;SDS011;58101;48.658;2.328;2022-07-01T14:05:55;2.65;;;0.73;;
70549;SDS011;58101;48.658;2.328;2022-07-01T14:08:21;4.18;;;0.68;;
70549;SDS011;58101;48.658;2.328;2022-07-01T14:10:46;2.97;;;0.47;;
70549;SDS011;58101;48.658;2.328;2022-07-01T14:13:12;3.47;;;0.65;;
70549;SDS011;58101;48.658;2.328;2022-07-01T14:15:38;3.10;;;0.60;;
70549;SDS011;58101;48.658;2.328;2022-07-01T14:18:03;2.78;;;0.55;;
70549;SDS011;58101;48.658;2.328;2022-07-01T14:20:29;1.70;;;0.25;;
70549;SDS011;58101;48.658;2.328;2022-07-01T14:22:55;2.65;;;0.43;;
70549;SDS011;58101;48.658;2.328;2022-07-01T14:25:21;3.97;;;0.40;;
70549;SDS011;58101;48.658;2.328;2022-07-01T14:30:14;4.60;;;0.90;;
70549;SDS011;58101;48.658;2.328;2022-07-01T14:32:40;2.00;;;0.52;;
70549;SDS011;58101;48.658;2.328;2022-07-01T14:35:06;4.68;;;0.70;;
70549;SDS011;58101;48.658;2.328;2022-07-01T14:39:58;3.65;;;0.63;;
70549;SDS011;58101;48.658;2.328;2022-07-01T14:42:24;2.80;;;0.50;;
70549;SDS011;58101;48.658;2.328;2022-07-01T14:44:50;2.72;;;0.50;;
70549;SDS011;58101;48.658;2.328;2022-07-01T14:47:17;4.22;;;0.60;;
70549;SDS011;58101;48.658;2.328;2022-07-01T14:49:43;3.28;;;0.60;;
70549;SDS011;58101;48.658;2.328;2022-07-01T14:52:10;2.28;;;0.60;;
70549;SDS011;58101;48.658;2.328;2022-07-01T14:54:37;5.15;;;0.70;;
70549;SDS011;58101;48.658;2.328;2022-07-01T14:57:04;3.47;;;0.50;;
70549;SDS011;58101;48.658;2.328;2022-07-01T14:59:30;1.52;;;0.40;;
70549;SDS011;58101;48.658;2.328;2022-07-01T15:04:25;4.10;;;0.75;;
70549;SDS011;58101;48.658;2.328;2022-07-01T15:06:51;1.25;;;0.40;;
70549;SDS011;58101;48.658;2.328;2022-07-01T15:09:17;3.28;;;0.52;;
70549;SDS011;58101;48.658;2.328;2022-07-01T15:11:46;2.50;;;0.50;;
70549;SDS011;58101;48.658;2.328;2022-07-01T15:14:13;4.03;;;0.63;;
70549;SDS011;58101;48.658;2.328;2022-07-01T15:16:39;1.70;;;0.50;;
70549;SDS011;58101;48.658;2.328;2022-07-01T15:19:05;3.45;;;0.60;;
70549;SDS011;58101;48.658;2.328;2022-07-01T15:21:31;2.40;;;0.47;;
70549;SDS011;58101;48.658;2.328;2022-07-01T15:26:23;4.15;;;0.60;;
70549;SDS011;58101;48.658;2.328;2022-07-01T15:28:49;1.33;;;0.50;;
70549;SDS011;58101;48.658;2.328;2022-07-01T15:31:15;3.35;;;0.50;;
70549;SDS011;58101;48.658;2.328;2022-07-01T15:33:41;4.00;;;0.85;;
70549;SDS011;58101;48.658;2.328;2022-07-01T15:36:08;2.55;;;0.50;;
70549;SDS011;58101;48.658;2.328;2022-07-01T15:38:35;1.48;;;0.57;;
70549;SDS011;58101;48.658;2.328;2022-07-01T15:41:04;1.95;;;0.45;;
70549;SDS011;58101;48.658;2.328;2022-07-01T15:43:33;2.38;;;0.60;;
70549;SDS011;58101;48.658;2.328;2022-07-01T15:45:59;3.03;;;0.77;;
70549;SDS011;58101;48.658;2.328;2022-07-01T15:48:26;3.38;;;0.60;;
70549;SDS011;58101;48.658;2.328;2022-07-01T15:50:51;2.63;;;0.60;;
70549;SDS011;58101;48.658;2.328;2022-07-01T15:53:18;2.20;;;0.60;;
70549;SDS011;58101;48.658;2.328;2022-07-01T15:55:48;1.95;;;0.50;;
70549;SDS011;58101;48.658;2.328;2022-07-01T15:58:15;2.17;;;0.50;;